Terminal Aerodrome Forecast
Issued by NWS

Home | Current Version | Previous Version | Text Only | Print | Product List | Glossary On
Versions: 1 2 3 4 5 6 7 8 9 10 11 12 13 14 15 16 17 18 19
000
FTUS43 KICT 271731
TAFHUT
TAF
KHUT 271731Z 2718/2818 02012KT P6SM BKN010 BKN035
      TEMPO 2718/2720 SCT010
     FM272000 01010KT P6SM SCT010 BKN025
     FM272300 02010KT P6SM SCT060
     FM280400 04006KT P6SM BKN120
     FM281000 02005KT P6SM SCT110=

USA.gov is the U.S. government's official web portal to all federal, state and local government web resources and services.